Погода Покровская Варежкана 2 недели

Пензенская область, Россия

17 - 30 июля
  • 17июля
    Сегодня
    +17°
    +31°
    Ясно и безоблачно
    ВремяПогодаТемператураВлажностьДавлениеВетер, м/сВероятность осадков
    00:00Ясно и безоблачно+21°C49 %747 мм3.1 м/с2 %
    03:00Ясно и безоблачно+19°C55 %747 мм3.1 м/с2 %
    06:00Ясно и безоблачно+20°C61 %748 мм2.6 м/с2 %
    09:00Ясно и безоблачно+26°C48 %748 мм3.2 м/с2 %
    12:00Облачно с прояснениями+29°C40 %748 мм2.0 м/с2 %
    15:00Ясно и безоблачно+31°C35 %748 мм2.6 м/с2 %
    18:00Ясно и безоблачно+29°C38 %747 мм2.7 м/с2 %
    21:00Ясно и безоблачно+23°C55 %747 мм1.9 м/с2 %
  • 18июля
    Четверг
    +18°
    +32°
    Практически безоблачно
    ВремяПогодаТемператураВлажностьДавлениеВетер, м/сВероятность осадков
    00:00Практически безоблачно+19°C68 %747 мм1.9 м/с2 %
    03:00Практически безоблачно+18°C72 %747 мм1.8 м/с2 %
    06:00Ясно и безоблачно+21°C64 %747 мм2.1 м/с2 %
    09:00Ясно и безоблачно+28°C44 %746 мм2.0 м/с2 %
    12:00Практически безоблачно+30°C37 %745 мм2.8 м/с8 %
    15:00Практически безоблачно+32°C38 %745 мм2.5 м/с8 %
    18:00Облачно с прояснениями+27°C58 %744 мм3.3 м/с28 %
    21:00Небольшая облачность+23°C74 %744 мм1.8 м/с10 %
  • 19июля
    Пятница
    +16°
    +30°
    Облачно с прояснениями
    ВремяПогодаТемператураВлажностьДавлениеВетер, м/сВероятность осадков
    00:00Небольшая облачность+20°C86 %744 мм1.5 м/с27 %
    03:00Ясно и безоблачно+19°C84 %743 мм1.8 м/с12 %
    06:00Ясно и безоблачно+20°C72 %743 мм2.5 м/с5 %
    09:00Практически безоблачно+26°C45 %743 мм2.7 м/с5 %
    12:00Облачно с прояснениями+28°C35 %742 мм2.3 м/с9 %
    15:00Облачно с прояснениями+30°C33 %741 мм2.1 м/с18 %
    18:00Небольшая облачность+28°C41 %741 мм1.2 м/с25 %
    21:00Ясно и безоблачно+23°C49 %741 мм3.8 м/с22 %
  • 20июля
    Суббота
    +16°
    +29°
    Ясно и безоблачно
    ВремяПогодаТемператураВлажностьДавлениеВетер, м/сВероятность осадков
    00:00Ясно и безоблачно+19°C65 %741 мм2.5 м/с19 %
    03:00Облачно с прояснениями+17°C82 %741 мм2.1 м/с16 %
    06:00Ясно и безоблачно+19°C81 %741 мм2.6 м/с12 %
    09:00Ясно и безоблачно+24°C59 %741 мм2.9 м/с17 %
    12:00Практически безоблачно+28°C49 %741 мм3.0 м/с27 %
    15:00Ясно и безоблачно+29°C45 %741 мм2.4 м/с33 %
    18:00Ясно и безоблачно+27°C45 %741 мм2.8 м/с19 %
    21:00Ясно и безоблачно+22°C63 %742 мм1.8 м/с2 %
  • 21июля
    Воскресенье
    +17°
    +30°
    Небольшая облачность
    ВремяПогодаТемператураВлажностьДавлениеВетер, м/сВероятность осадков
    00:00Ясно и безоблачно+19°C75 %742 мм1.7 м/с2 %
    03:00Облачно с прояснениями+17°C85 %742 мм1.8 м/с2 %
    06:00Облачно с прояснениями+18°C78 %743 мм1.3 м/с2 %
    09:00Облачно с прояснениями+25°C51 %743 мм1.2 м/с7 %
    12:00Небольшая облачность+28°C41 %743 мм0.7 м/с28 %
    15:00Небольшая облачность+29°C38 %742 мм1.4 м/с23 %
    18:00Практически безоблачно+28°C39 %742 мм1.0 м/с29 %
    21:00Небольшая облачность+23°C55 %742 мм2.4 м/с5 %
Мы используем cookies
Соглашаюсь